sensor_id;sensor_type;location;lat;lon;timestamp;P1;durP1;ratioP1;P2;durP2;ratioP2
68921;SDS011;55959;51.244;5.724;2023-07-20T00:01:47;2.83;;;2.55;;
68921;SDS011;55959;51.244;5.724;2023-07-20T00:04:13;3.33;;;2.60;;
68921;SDS011;55959;51.244;5.724;2023-07-20T00:06:41;4.18;;;2.70;;
68921;SDS011;55959;51.244;5.724;2023-07-20T00:09:07;3.22;;;2.88;;
68921;SDS011;55959;51.244;5.724;2023-07-20T00:11:35;3.17;;;2.88;;
68921;SDS011;55959;51.244;5.724;2023-07-20T00:14:05;3.25;;;2.63;;
68921;SDS011;55959;51.244;5.724;2023-07-20T00:16:31;2.83;;;2.55;;
68921;SDS011;55959;51.244;5.724;2023-07-20T00:18:57;2.70;;;2.50;;
68921;SDS011;55959;51.244;5.724;2023-07-20T00:21:23;2.88;;;2.58;;
68921;SDS011;55959;51.244;5.724;2023-07-20T00:23:49;3.13;;;2.55;;
68921;SDS011;55959;51.244;5.724;2023-07-20T00:26:15;3.65;;;2.35;;
68921;SDS011;55959;51.244;5.724;2023-07-20T00:28:41;2.88;;;2.60;;
68921;SDS011;55959;51.244;5.724;2023-07-20T00:31:08;2.95;;;2.47;;
68921;SDS011;55959;51.244;5.724;2023-07-20T00:33:34;4.18;;;2.70;;
68921;SDS011;55959;51.244;5.724;2023-07-20T00:35:59;2.85;;;2.63;;
68921;SDS011;55959;51.244;5.724;2023-07-20T00:38:25;3.35;;;2.55;;
68921;SDS011;55959;51.244;5.724;2023-07-20T00:40:51;2.78;;;2.30;;
68921;SDS011;55959;51.244;5.724;2023-07-20T00:43:17;3.10;;;2.70;;
68921;SDS011;55959;51.244;5.724;2023-07-20T00:45:43;3.83;;;2.85;;
68921;SDS011;55959;51.244;5.724;2023-07-20T00:48:09;3.17;;;2.40;;
68921;SDS011;55959;51.244;5.724;2023-07-20T00:50:36;3.70;;;2.65;;
68921;SDS011;55959;51.244;5.724;2023-07-20T00:53:02;3.13;;;2.25;;
68921;SDS011;55959;51.244;5.724;2023-07-20T00:55:30;4.35;;;2.72;;
68921;SDS011;55959;51.244;5.724;2023-07-20T00:57:56;2.63;;;2.28;;
68921;SDS011;55959;51.244;5.724;2023-07-20T01:00:23;3.67;;;2.33;;
68921;SDS011;55959;51.244;5.724;2023-07-20T01:02:50;2.72;;;2.35;;
68921;SDS011;55959;51.244;5.724;2023-07-20T01:05:16;3.38;;;2.47;;
68921;SDS011;55959;51.244;5.724;2023-07-20T01:07:44;2.60;;;2.40;;
68921;SDS011;55959;51.244;5.724;2023-07-20T01:13:00;3.28;;;2.35;;
68921;SDS011;55959;51.244;5.724;2023-07-20T01:15:28;4.35;;;2.55;;
68921;SDS011;55959;51.244;5.724;2023-07-20T01:17:54;3.03;;;2.65;;
68921;SDS011;55959;51.244;5.724;2023-07-20T01:20:20;2.97;;;2.67;;
68921;SDS011;55959;51.244;5.724;2023-07-20T01:31:32;4.75;;;2.60;;
68921;SDS011;55959;51.244;5.724;2023-07-20T01:34:00;3.60;;;3.15;;
68921;SDS011;55959;51.244;5.724;2023-07-20T01:36:30;4.55;;;2.78;;
68921;SDS011;55959;51.244;5.724;2023-07-20T01:38:59;6.05;;;3.67;;
68921;SDS011;55959;51.244;5.724;2023-07-20T01:41:26;2.92;;;2.45;;
68921;SDS011;55959;51.244;5.724;2023-07-20T01:43:52;3.67;;;2.80;;
68921;SDS011;55959;51.244;5.724;2023-07-20T01:46:18;2.90;;;2.50;;
68921;SDS011;55959;51.244;5.724;2023-07-20T01:48:43;3.33;;;2.30;;
68921;SDS011;55959;51.244;5.724;2023-07-20T01:51:09;3.75;;;2.97;;
68921;SDS011;55959;51.244;5.724;2023-07-20T01:53:37;3.42;;;2.58;;
68921;SDS011;55959;51.244;5.724;2023-07-20T01:56:02;4.28;;;2.53;;
68921;SDS011;55959;51.244;5.724;2023-07-20T01:58:28;2.65;;;2.40;;
68921;SDS011;55959;51.244;5.724;2023-07-20T02:00:57;3.17;;;2.53;;
68921;SDS011;55959;51.244;5.724;2023-07-20T02:03:22;3.83;;;2.65;;
68921;SDS011;55959;51.244;5.724;2023-07-20T02:05:50;3.13;;;2.40;;
68921;SDS011;55959;51.244;5.724;2023-07-20T02:08:16;3.13;;;2.58;;
68921;SDS011;55959;51.244;5.724;2023-07-20T02:10:47;3.60;;;2.60;;
68921;SDS011;55959;51.244;5.724;2023-07-20T02:13:13;3.53;;;3.03;;
68921;SDS011;55959;51.244;5.724;2023-07-20T02:15:40;5.75;;;2.80;;
68921;SDS011;55959;51.244;5.724;2023-07-20T02:18:07;3.45;;;2.90;;
68921;SDS011;55959;51.244;5.724;2023-07-20T02:20:33;4.13;;;3.10;;
68921;SDS011;55959;51.244;5.724;2023-07-20T02:23:03;3.55;;;2.75;;
68921;SDS011;55959;51.244;5.724;2023-07-20T02:25:29;5.25;;;3.08;;
68921;SDS011;55959;51.244;5.724;2023-07-20T02:27:55;3.50;;;2.80;;
68921;SDS011;55959;51.244;5.724;2023-07-20T02:30:22;3.83;;;2.50;;
68921;SDS011;55959;51.244;5.724;2023-07-20T02:32:48;3.13;;;2.47;;
68921;SDS011;55959;51.244;5.724;2023-07-20T02:35:14;3.40;;;2.95;;
68921;SDS011;55959;51.244;5.724;2023-07-20T02:37:43;4.68;;;2.83;;
68921;SDS011;55959;51.244;5.724;2023-07-20T02:40:10;4.93;;;3.03;;
68921;SDS011;55959;51.244;5.724;2023-07-20T02:42:36;2.90;;;2.55;;
68921;SDS011;55959;51.244;5.724;2023-07-20T02:45:02;3.53;;;2.72;;
68921;SDS011;55959;51.244;5.724;2023-07-20T02:47:29;4.05;;;2.65;;
68921;SDS011;55959;51.244;5.724;2023-07-20T02:49:55;4.05;;;3.13;;
68921;SDS011;55959;51.244;5.724;2023-07-20T02:52:22;3.28;;;2.72;;
68921;SDS011;55959;51.244;5.724;2023-07-20T02:54:49;4.45;;;2.95;;
68921;SDS011;55959;51.244;5.724;2023-07-20T02:57:14;4.05;;;2.65;;
68921;SDS011;55959;51.244;5.724;2023-07-20T02:59:40;4.40;;;2.72;;
68921;SDS011;55959;51.244;5.724;2023-07-20T03:02:06;4.93;;;3.15;;
68921;SDS011;55959;51.244;5.724;2023-07-20T03:04:34;3.58;;;3.00;;
68921;SDS011;55959;51.244;5.724;2023-07-20T03:07:02;4.82;;;3.00;;
68921;SDS011;55959;51.244;5.724;2023-07-20T03:09:29;4.50;;;3.08;;
68921;SDS011;55959;51.244;5.724;2023-07-20T03:11:55;4.32;;;3.90;;
68921;SDS011;55959;51.244;5.724;2023-07-20T03:14:22;6.80;;;3.20;;
68921;SDS011;55959;51.244;5.724;2023-07-20T03:16:48;5.40;;;3.45;;
68921;SDS011;55959;51.244;5.724;2023-07-20T03:19:14;4.18;;;3.13;;
68921;SDS011;55959;51.244;5.724;2023-07-20T03:21:40;5.30;;;3.00;;
68921;SDS011;55959;51.244;5.724;2023-07-20T03:24:07;6.15;;;3.83;;
68921;SDS011;55959;51.244;5.724;2023-07-20T03:26:36;5.22;;;4.15;;
68921;SDS011;55959;51.244;5.724;2023-07-20T03:29:02;5.07;;;4.15;;
68921;SDS011;55959;51.244;5.724;2023-07-20T03:31:29;8.38;;;4.50;;
68921;SDS011;55959;51.244;5.724;2023-07-20T03:33:55;4.93;;;3.80;;
68921;SDS011;55959;51.244;5.724;2023-07-20T03:36:20;5.30;;;4.10;;
68921;SDS011;55959;51.244;5.724;2023-07-20T03:38:47;6.45;;;4.90;;
68921;SDS011;55959;51.244;5.724;2023-07-20T03:41:13;6.60;;;5.70;;
68921;SDS011;55959;51.244;5.724;2023-07-20T03:43:41;5.30;;;4.80;;
68921;SDS011;55959;51.244;5.724;2023-07-20T03:46:07;6.25;;;5.65;;
68921;SDS011;55959;51.244;5.724;2023-07-20T03:48:33;7.80;;;7.00;;
68921;SDS011;55959;51.244;5.724;2023-07-20T03:50:59;8.98;;;6.93;;
68921;SDS011;55959;51.244;5.724;2023-07-20T03:53:25;7.65;;;6.72;;
68921;SDS011;55959;51.244;5.724;2023-07-20T03:55:51;7.47;;;6.30;;
68921;SDS011;55959;51.244;5.724;2023-07-20T03:58:19;7.85;;;7.00;;
68921;SDS011;55959;51.244;5.724;2023-07-20T04:00:46;7.43;;;6.57;;
68921;SDS011;55959;51.244;5.724;2023-07-20T04:03:15;8.05;;;5.95;;
68921;SDS011;55959;51.244;5.724;2023-07-20T04:05:41;6.82;;;6.22;;
68921;SDS011;55959;51.244;5.724;2023-07-20T04:08:08;6.45;;;5.85;;
68921;SDS011;55959;51.244;5.724;2023-07-20T04:10:36;6.22;;;5.63;;
68921;SDS011;55959;51.244;5.724;2023-07-20T04:13:02;6.50;;;5.90;;
68921;SDS011;55959;51.244;5.724;2023-07-20T04:15:29;6.25;;;5.57;;
68921;SDS011;55959;51.244;5.724;2023-07-20T04:17:56;5.70;;;5.20;;
68921;SDS011;55959;51.244;5.724;2023-07-20T04:20:22;8.35;;;6.90;;
68921;SDS011;55959;51.244;5.724;2023-07-20T04:22:48;7.35;;;6.65;;
68921;SDS011;55959;51.244;5.724;2023-07-20T04:25:14;9.10;;;7.13;;
68921;SDS011;55959;51.244;5.724;2023-07-20T04:27:41;6.18;;;5.38;;
68921;SDS011;55959;51.244;5.724;2023-07-20T04:30:07;8.07;;;6.82;;
68921;SDS011;55959;51.244;5.724;2023-07-20T04:32:34;6.93;;;6.28;;
68921;SDS011;55959;51.244;5.724;2023-07-20T04:35:00;7.53;;;6.47;;
68921;SDS011;55959;51.244;5.724;2023-07-20T04:37:25;5.95;;;5.40;;
68921;SDS011;55959;51.244;5.724;2023-07-20T04:39:51;7.88;;;6.57;;
68921;SDS011;55959;51.244;5.724;2023-07-20T04:42:18;6.60;;;5.95;;
68921;SDS011;55959;51.244;5.724;2023-07-20T04:44:45;6.60;;;6.00;;
68921;SDS011;55959;51.244;5.724;2023-07-20T04:47:11;7.38;;;6.47;;
68921;SDS011;55959;51.244;5.724;2023-07-20T04:49:37;7.90;;;6.68;;
68921;SDS011;55959;51.244;5.724;2023-07-20T04:52:04;6.47;;;5.85;;
68921;SDS011;55959;51.244;5.724;2023-07-20T04:54:30;7.13;;;6.15;;
68921;SDS011;55959;51.244;5.724;2023-07-20T04:56:56;7.55;;;6.75;;
68921;SDS011;55959;51.244;5.724;2023-07-20T04:59:21;8.25;;;7.43;;
68921;SDS011;55959;51.244;5.724;2023-07-20T05:01:48;7.15;;;6.45;;
68921;SDS011;55959;51.244;5.724;2023-07-20T05:04:14;7.28;;;6.57;;
68921;SDS011;55959;51.244;5.724;2023-07-20T05:06:39;7.40;;;6.38;;
68921;SDS011;55959;51.244;5.724;2023-07-20T05:09:05;7.10;;;6.40;;
68921;SDS011;55959;51.244;5.724;2023-07-20T05:11:31;7.07;;;6.32;;
68921;SDS011;55959;51.244;5.724;2023-07-20T05:13:57;6.65;;;5.95;;
68921;SDS011;55959;51.244;5.724;2023-07-20T05:16:23;9.10;;;6.50;;
68921;SDS011;55959;51.244;5.724;2023-07-20T05:18:49;7.90;;;6.85;;
68921;SDS011;55959;51.244;5.724;2023-07-20T05:21:14;8.48;;;6.53;;
68921;SDS011;55959;51.244;5.724;2023-07-20T05:23:40;7.60;;;6.45;;
68921;SDS011;55959;51.244;5.724;2023-07-20T05:26:06;6.60;;;6.00;;
68921;SDS011;55959;51.244;5.724;2023-07-20T05:28:32;6.32;;;5.72;;
68921;SDS011;55959;51.244;5.724;2023-07-20T05:30:57;6.32;;;5.72;;
68921;SDS011;55959;51.244;5.724;2023-07-20T05:33:24;7.72;;;6.93;;
68921;SDS011;55959;51.244;5.724;2023-07-20T05:35:50;6.20;;;5.57;;
68921;SDS011;55959;51.244;5.724;2023-07-20T05:38:16;8.23;;;6.95;;
68921;SDS011;55959;51.244;5.724;2023-07-20T05:40:42;9.65;;;7.15;;
68921;SDS011;55959;51.244;5.724;2023-07-20T05:43:10;6.53;;;5.93;;
68921;SDS011;55959;51.244;5.724;2023-07-20T05:45:36;6.60;;;6.10;;
68921;SDS011;55959;51.244;5.724;2023-07-20T05:48:01;5.93;;;5.32;;
68921;SDS011;55959;51.244;5.724;2023-07-20T05:50:28;7.93;;;6.85;;
68921;SDS011;55959;51.244;5.724;2023-07-20T05:52:53;7.13;;;6.43;;
68921;SDS011;55959;51.244;5.724;2023-07-20T05:55:20;6.00;;;5.50;;
68921;SDS011;55959;51.244;5.724;2023-07-20T05:57:46;5.70;;;5.20;;
68921;SDS011;55959;51.244;5.724;2023-07-20T06:00:13;5.75;;;5.25;;
68921;SDS011;55959;51.244;5.724;2023-07-20T06:02:39;7.00;;;6.30;;
68921;SDS011;55959;51.244;5.724;2023-07-20T06:05:06;5.50;;;5.05;;
68921;SDS011;55959;51.244;5.724;2023-07-20T06:07:38;6.00;;;5.32;;
68921;SDS011;55959;51.244;5.724;2023-07-20T06:10:04;5.30;;;4.80;;
68921;SDS011;55959;51.244;5.724;2023-07-20T06:12:31;5.47;;;4.20;;
68921;SDS011;55959;51.244;5.724;2023-07-20T06:15:01;5.28;;;4.78;;
68921;SDS011;55959;51.244;5.724;2023-07-20T06:17:30;5.68;;;5.18;;
68921;SDS011;55959;51.244;5.724;2023-07-20T06:19:56;4.75;;;4.35;;
68921;SDS011;55959;51.244;5.724;2023-07-20T06:22:22;5.20;;;4.70;;
68921;SDS011;55959;51.244;5.724;2023-07-20T06:24:48;5.38;;;4.40;;
68921;SDS011;55959;51.244;5.724;2023-07-20T06:27:13;4.60;;;4.20;;
68921;SDS011;55959;51.244;5.724;2023-07-20T06:29:39;4.00;;;3.60;;
68921;SDS011;55959;51.244;5.724;2023-07-20T06:32:05;4.07;;;3.55;;
68921;SDS011;55959;51.244;5.724;2023-07-20T06:34:31;5.05;;;4.25;;
68921;SDS011;55959;51.244;5.724;2023-07-20T06:37:01;4.10;;;3.80;;
68921;SDS011;55959;51.244;5.724;2023-07-20T06:39:29;4.93;;;4.50;;
68921;SDS011;55959;51.244;5.724;2023-07-20T06:41:55;5.28;;;4.50;;
68921;SDS011;55959;51.244;5.724;2023-07-20T06:44:21;4.93;;;4.43;;
68921;SDS011;55959;51.244;5.724;2023-07-20T06:46:47;4.38;;;3.97;;
68921;SDS011;55959;51.244;5.724;2023-07-20T06:49:23;3.80;;;3.50;;
68921;SDS011;55959;51.244;5.724;2023-07-20T06:51:51;4.72;;;4.32;;
68921;SDS011;55959;51.244;5.724;2023-07-20T06:54:17;4.80;;;4.40;;
68921;SDS011;55959;51.244;5.724;2023-07-20T06:56:43;4.90;;;3.70;;
68921;SDS011;55959;51.244;5.724;2023-07-20T06:59:09;4.43;;;4.00;;
68921;SDS011;55959;51.244;5.724;2023-07-20T07:01:35;3.63;;;2.80;;
68921;SDS011;55959;51.244;5.724;2023-07-20T07:04:01;3.08;;;2.17;;
68921;SDS011;55959;51.244;5.724;2023-07-20T07:06:26;2.63;;;2.42;;
68921;SDS011;55959;51.244;5.724;2023-07-20T07:08:53;2.65;;;2.45;;
68921;SDS011;55959;51.244;5.724;2023-07-20T07:11:20;2.40;;;2.20;;
68921;SDS011;55959;51.244;5.724;2023-07-20T07:13:46;2.47;;;2.28;;
68921;SDS011;55959;51.244;5.724;2023-07-20T07:16:14;1.40;;;1.30;;
68921;SDS011;55959;51.244;5.724;2023-07-20T07:18:43;1.77;;;1.45;;
68921;SDS011;55959;51.244;5.724;2023-07-20T07:21:10;1.45;;;1.25;;
68921;SDS011;55959;51.244;5.724;2023-07-20T07:23:37;1.55;;;1.20;;
68921;SDS011;55959;51.244;5.724;2023-07-20T07:26:03;1.33;;;1.23;;
68921;SDS011;55959;51.244;5.724;2023-07-20T07:28:30;1.40;;;1.30;;
68921;SDS011;55959;51.244;5.724;2023-07-20T07:30:57;1.55;;;1.27;;
68921;SDS011;55959;51.244;5.724;2023-07-20T07:33:23;1.40;;;1.30;;
68921;SDS011;55959;51.244;5.724;2023-07-20T07:35:49;1.45;;;1.15;;
68921;SDS011;55959;51.244;5.724;2023-07-20T07:38:19;0.80;;;0.80;;
68921;SDS011;55959;51.244;5.724;2023-07-20T07:40:45;0.68;;;0.68;;
68921;SDS011;55959;51.244;5.724;2023-07-20T07:43:11;1.52;;;1.42;;
68921;SDS011;55959;51.244;5.724;2023-07-20T07:45:38;2.10;;;1.90;;
68921;SDS011;55959;51.244;5.724;2023-07-20T07:48:06;2.95;;;1.88;;
68921;SDS011;55959;51.244;5.724;2023-07-20T07:50:33;1.83;;;1.70;;
68921;SDS011;55959;51.244;5.724;2023-07-20T07:52:59;1.83;;;1.42;;
68921;SDS011;55959;51.244;5.724;2023-07-20T07:55:25;1.88;;;1.77;;
68921;SDS011;55959;51.244;5.724;2023-07-20T07:57:54;1.58;;;1.48;;
68921;SDS011;55959;51.244;5.724;2023-07-20T08:00:20;1.55;;;1.45;;
68921;SDS011;55959;51.244;5.724;2023-07-20T08:02:46;1.27;;;1.17;;
68921;SDS011;55959;51.244;5.724;2023-07-20T08:05:13;1.70;;;1.17;;
68921;SDS011;55959;51.244;5.724;2023-07-20T08:07:39;2.30;;;1.25;;
68921;SDS011;55959;51.244;5.724;2023-07-20T08:10:05;1.00;;;0.90;;
68921;SDS011;55959;51.244;5.724;2023-07-20T08:12:31;0.60;;;0.60;;
68921;SDS011;55959;51.244;5.724;2023-07-20T08:14:57;1.58;;;1.00;;
68921;SDS011;55959;51.244;5.724;2023-07-20T08:17:23;0.90;;;0.70;;
68921;SDS011;55959;51.244;5.724;2023-07-20T08:19:50;1.02;;;0.63;;
68921;SDS011;55959;51.244;5.724;2023-07-20T08:22:16;3.17;;;0.70;;
68921;SDS011;55959;51.244;5.724;2023-07-20T08:24:42;0.98;;;0.60;;
68921;SDS011;55959;51.244;5.724;2023-07-20T08:27:08;0.68;;;0.50;;
68921;SDS011;55959;51.244;5.724;2023-07-20T08:29:35;0.52;;;0.50;;
68921;SDS011;55959;51.244;5.724;2023-07-20T08:32:03;0.95;;;0.70;;
68921;SDS011;55959;51.244;5.724;2023-07-20T08:34:31;0.93;;;0.60;;
68921;SDS011;55959;51.244;5.724;2023-07-20T08:36:57;0.50;;;0.50;;
68921;SDS011;55959;51.244;5.724;2023-07-20T08:39:26;2.70;;;0.80;;
68921;SDS011;55959;51.244;5.724;2023-07-20T08:41:52;1.55;;;0.50;;
68921;SDS011;55959;51.244;5.724;2023-07-20T08:44:20;0.52;;;0.40;;
68921;SDS011;55959;51.244;5.724;2023-07-20T08:46:46;0.47;;;0.30;;
68921;SDS011;55959;51.244;5.724;2023-07-20T08:49:15;0.30;;;0.30;;
68921;SDS011;55959;51.244;5.724;2023-07-20T08:51:43;0.50;;;0.30;;
68921;SDS011;55959;51.244;5.724;2023-07-20T08:54:11;0.45;;;0.30;;
68921;SDS011;55959;51.244;5.724;2023-07-20T08:56:38;0.73;;;0.40;;
68921;SDS011;55959;51.244;5.724;2023-07-20T08:59:06;0.77;;;0.50;;
68921;SDS011;55959;51.244;5.724;2023-07-20T09:01:33;0.82;;;0.80;;
68921;SDS011;55959;51.244;5.724;2023-07-20T09:04:01;0.77;;;0.60;;
68921;SDS011;55959;51.244;5.724;2023-07-20T09:06:28;0.60;;;0.60;;
68921;SDS011;55959;51.244;5.724;2023-07-20T09:08:55;0.95;;;0.40;;
68921;SDS011;55959;51.244;5.724;2023-07-20T09:11:21;0.60;;;0.50;;
68921;SDS011;55959;51.244;5.724;2023-07-20T09:13:47;1.05;;;0.68;;
68921;SDS011;55959;51.244;5.724;2023-07-20T09:16:13;0.52;;;0.50;;
68921;SDS011;55959;51.244;5.724;2023-07-20T09:18:43;0.60;;;0.60;;
68921;SDS011;55959;51.244;5.724;2023-07-20T09:21:08;0.52;;;0.50;;
68921;SDS011;55959;51.244;5.724;2023-07-20T09:23:37;1.20;;;0.60;;
68921;SDS011;55959;51.244;5.724;2023-07-20T09:26:11;1.05;;;0.65;;
68921;SDS011;55959;51.244;5.724;2023-07-20T09:28:51;0.82;;;0.70;;
68921;SDS011;55959;51.244;5.724;2023-07-20T09:31:19;0.68;;;0.55;;
68921;SDS011;55959;51.244;5.724;2023-07-20T09:33:47;0.85;;;0.60;;
68921;SDS011;55959;51.244;5.724;2023-07-20T09:36:14;0.85;;;0.60;;
68921;SDS011;55959;51.244;5.724;2023-07-20T09:38:43;1.00;;;0.60;;
68921;SDS011;55959;51.244;5.724;2023-07-20T09:41:13;0.73;;;0.50;;
68921;SDS011;55959;51.244;5.724;2023-07-20T09:43:43;0.52;;;0.52;;
68921;SDS011;55959;51.244;5.724;2023-07-20T09:46:10;0.80;;;0.70;;
68921;SDS011;55959;51.244;5.724;2023-07-20T09:48:36;0.60;;;0.60;;
68921;SDS011;55959;51.244;5.724;2023-07-20T09:51:02;0.68;;;0.60;;
68921;SDS011;55959;51.244;5.724;2023-07-20T09:53:32;0.60;;;0.60;;
68921;SDS011;55959;51.244;5.724;2023-07-20T09:55:59;1.33;;;0.88;;
68921;SDS011;55959;51.244;5.724;2023-07-20T09:58:25;0.57;;;0.57;;
68921;SDS011;55959;51.244;5.724;2023-07-20T10:00:52;0.82;;;0.50;;
68921;SDS011;55959;51.244;5.724;2023-07-20T10:03:22;0.60;;;0.60;;
68921;SDS011;55959;51.244;5.724;2023-07-20T10:08:27;0.60;;;0.60;;
68921;SDS011;55959;51.244;5.724;2023-07-20T10:10:55;0.82;;;0.60;;
68921;SDS011;55959;51.244;5.724;2023-07-20T10:13:27;1.20;;;0.70;;
68921;SDS011;55959;51.244;5.724;2023-07-20T10:15:57;0.88;;;0.60;;
68921;SDS011;55959;51.244;5.724;2023-07-20T10:21:18;0.60;;;0.60;;
68921;SDS011;55959;51.244;5.724;2023-07-20T10:23:48;0.68;;;0.68;;
68921;SDS011;55959;51.244;5.724;2023-07-20T10:26:15;1.08;;;0.60;;
68921;SDS011;55959;51.244;5.724;2023-07-20T10:28:40;0.90;;;0.60;;
68921;SDS011;55959;51.244;5.724;2023-07-20T10:31:10;0.85;;;0.65;;
68921;SDS011;55959;51.244;5.724;2023-07-20T10:33:38;1.02;;;0.80;;
68921;SDS011;55959;51.244;5.724;2023-07-20T10:36:05;0.95;;;0.88;;
68921;SDS011;55959;51.244;5.724;2023-07-20T10:41:19;1.45;;;0.90;;
68921;SDS011;55959;51.244;5.724;2023-07-20T10:43:49;0.60;;;0.50;;
68921;SDS011;55959;51.244;5.724;2023-07-20T10:46:33;0.55;;;0.55;;
68921;SDS011;55959;51.244;5.724;2023-07-20T10:49:09;0.65;;;0.55;;
68921;SDS011;55959;51.244;5.724;2023-07-20T10:51:47;0.88;;;0.60;;
68921;SDS011;55959;51.244;5.724;2023-07-20T10:56:44;1.67;;;0.68;;
68921;SDS011;55959;51.244;5.724;2023-07-20T11:01:54;0.40;;;0.40;;
68921;SDS011;55959;51.244;5.724;2023-07-20T11:04:40;1.13;;;0.73;;
68921;SDS011;55959;51.244;5.724;2023-07-20T11:07:08;0.75;;;0.60;;
68921;SDS011;55959;51.244;5.724;2023-07-20T11:09:34;0.90;;;0.68;;
68921;SDS011;55959;51.244;5.724;2023-07-20T11:12:10;2.05;;;0.60;;
68921;SDS011;55959;51.244;5.724;2023-07-20T11:14:42;0.80;;;0.70;;
68921;SDS011;55959;51.244;5.724;2023-07-20T11:17:19;0.68;;;0.60;;
68921;SDS011;55959;51.244;5.724;2023-07-20T11:19:54;0.98;;;0.50;;
68921;SDS011;55959;51.244;5.724;2023-07-20T11:22:23;0.60;;;0.60;;
68921;SDS011;55959;51.244;5.724;2023-07-20T11:24:49;0.60;;;0.60;;
68921;SDS011;55959;51.244;5.724;2023-07-20T11:27:15;0.95;;;0.50;;
68921;SDS011;55959;51.244;5.724;2023-07-20T11:29:45;0.90;;;0.70;;
68921;SDS011;55959;51.244;5.724;2023-07-20T11:32:13;0.40;;;0.40;;
68921;SDS011;55959;51.244;5.724;2023-07-20T11:34:47;0.90;;;0.60;;
68921;SDS011;55959;51.244;5.724;2023-07-20T11:37:13;0.68;;;0.52;;
68921;SDS011;55959;51.244;5.724;2023-07-20T11:39:39;0.60;;;0.52;;
68921;SDS011;55959;51.244;5.724;2023-07-20T11:42:05;0.43;;;0.43;;
68921;SDS011;55959;51.244;5.724;2023-07-20T11:44:31;0.77;;;0.70;;
68921;SDS011;55959;51.244;5.724;2023-07-20T11:47:08;1.00;;;0.63;;
68921;SDS011;55959;51.244;5.724;2023-07-20T11:49:36;0.55;;;0.50;;
68921;SDS011;55959;51.244;5.724;2023-07-20T11:52:03;0.60;;;0.60;;
68921;SDS011;55959;51.244;5.724;2023-07-20T11:54:42;0.52;;;0.50;;
68921;SDS011;55959;51.244;5.724;2023-07-20T11:57:18;1.95;;;0.73;;
68921;SDS011;55959;51.244;5.724;2023-07-20T11:59:58;0.75;;;0.60;;
68921;SDS011;55959;51.244;5.724;2023-07-20T12:02:30;0.60;;;0.50;;
68921;SDS011;55959;51.244;5.724;2023-07-20T12:04:56;0.88;;;0.55;;
68921;SDS011;55959;51.244;5.724;2023-07-20T12:07:23;0.68;;;0.47;;
68921;SDS011;55959;51.244;5.724;2023-07-20T12:10:08;0.65;;;0.50;;
68921;SDS011;55959;51.244;5.724;2023-07-20T12:12:38;0.65;;;0.60;;
68921;SDS011;55959;51.244;5.724;2023-07-20T12:15:24;0.47;;;0.47;;
68921;SDS011;55959;51.244;5.724;2023-07-20T12:17:56;2.55;;;0.70;;
68921;SDS011;55959;51.244;5.724;2023-07-20T12:20:34;0.70;;;0.68;;
68921;SDS011;55959;51.244;5.724;2023-07-20T12:23:09;1.08;;;0.70;;
68921;SDS011;55959;51.244;5.724;2023-07-20T12:25:38;0.60;;;0.40;;
68921;SDS011;55959;51.244;5.724;2023-07-20T12:28:05;1.05;;;0.52;;
68921;SDS011;55959;51.244;5.724;2023-07-20T12:30:36;1.25;;;0.55;;
68921;SDS011;55959;51.244;5.724;2023-07-20T12:33:06;0.50;;;0.50;;
68921;SDS011;55959;51.244;5.724;2023-07-20T12:35:33;0.60;;;0.60;;
68921;SDS011;55959;51.244;5.724;2023-07-20T12:37:59;0.77;;;0.60;;
68921;SDS011;55959;51.244;5.724;2023-07-20T12:40:25;0.80;;;0.70;;
68921;SDS011;55959;51.244;5.724;2023-07-20T12:42:51;0.85;;;0.50;;
68921;SDS011;55959;51.244;5.724;2023-07-20T12:45:16;0.70;;;0.50;;
68921;SDS011;55959;51.244;5.724;2023-07-20T12:47:42;0.57;;;0.57;;
68921;SDS011;55959;51.244;5.724;2023-07-20T12:50:11;0.60;;;0.50;;
68921;SDS011;55959;51.244;5.724;2023-07-20T12:52:38;0.35;;;0.32;;
68921;SDS011;55959;51.244;5.724;2023-07-20T12:55:08;0.85;;;0.50;;
68921;SDS011;55959;51.244;5.724;2023-07-20T12:57:35;0.70;;;0.70;;
68921;SDS011;55959;51.244;5.724;2023-07-20T13:00:03;1.02;;;0.60;;
68921;SDS011;55959;51.244;5.724;2023-07-20T13:02:33;0.65;;;0.63;;
68921;SDS011;55959;51.244;5.724;2023-07-20T13:04:59;1.70;;;0.70;;
68921;SDS011;55959;51.244;5.724;2023-07-20T13:07:59;1.20;;;0.73;;
68921;SDS011;55959;51.244;5.724;2023-07-20T13:10:21;1.35;;;0.77;;
68921;SDS011;55959;51.244;5.724;2023-07-20T13:12:47;0.52;;;0.52;;
68921;SDS011;55959;51.244;5.724;2023-07-20T13:15:12;0.65;;;0.65;;
68921;SDS011;55959;51.244;5.724;2023-07-20T13:17:38;1.40;;;0.60;;
68921;SDS011;55959;51.244;5.724;2023-07-20T13:20:06;0.70;;;0.70;;
68921;SDS011;55959;51.244;5.724;2023-07-20T13:22:35;0.50;;;0.50;;
68921;SDS011;55959;51.244;5.724;2023-07-20T13:25:02;0.50;;;0.50;;
68921;SDS011;55959;51.244;5.724;2023-07-20T13:27:28;1.88;;;0.75;;
68921;SDS011;55959;51.244;5.724;2023-07-20T13:29:55;0.65;;;0.55;;
68921;SDS011;55959;51.244;5.724;2023-07-20T13:32:21;0.50;;;0.50;;
68921;SDS011;55959;51.244;5.724;2023-07-20T13:34:47;0.50;;;0.50;;
68921;SDS011;55959;51.244;5.724;2023-07-20T13:37:13;0.73;;;0.60;;
68921;SDS011;55959;51.244;5.724;2023-07-20T13:39:39;1.05;;;0.70;;
68921;SDS011;55959;51.244;5.724;2023-07-20T13:42:05;0.90;;;0.60;;
68921;SDS011;55959;51.244;5.724;2023-07-20T13:44:32;1.13;;;0.73;;
68921;SDS011;55959;51.244;5.724;2023-07-20T13:46:58;1.15;;;0.70;;
68921;SDS011;55959;51.244;5.724;2023-07-20T13:49:24;1.95;;;0.75;;
68921;SDS011;55959;51.244;5.724;2023-07-20T13:51:49;0.50;;;0.50;;
68921;SDS011;55959;51.244;5.724;2023-07-20T13:54:15;0.50;;;0.50;;
68921;SDS011;55959;51.244;5.724;2023-07-20T13:56:41;0.80;;;0.57;;
68921;SDS011;55959;51.244;5.724;2023-07-20T13:59:07;0.50;;;0.50;;
68921;SDS011;55959;51.244;5.724;2023-07-20T14:01:33;1.73;;;0.70;;
68921;SDS011;55959;51.244;5.724;2023-07-20T14:04:00;1.02;;;0.60;;
68921;SDS011;55959;51.244;5.724;2023-07-20T14:06:29;0.60;;;0.52;;
68921;SDS011;55959;51.244;5.724;2023-07-20T14:08:56;0.65;;;0.50;;
68921;SDS011;55959;51.244;5.724;2023-07-20T14:11:23;0.70;;;0.60;;
68921;SDS011;55959;51.244;5.724;2023-07-20T14:13:52;1.55;;;1.00;;
68921;SDS011;55959;51.244;5.724;2023-07-20T14:16:19;0.88;;;0.60;;
68921;SDS011;55959;51.244;5.724;2023-07-20T14:18:45;0.40;;;0.40;;
68921;SDS011;55959;51.244;5.724;2023-07-20T14:21:13;1.10;;;0.70;;
68921;SDS011;55959;51.244;5.724;2023-07-20T14:23:47;1.10;;;0.80;;
68921;SDS011;55959;51.244;5.724;2023-07-20T14:26:15;0.68;;;0.68;;
68921;SDS011;55959;51.244;5.724;2023-07-20T14:28:41;1.23;;;0.50;;
68921;SDS011;55959;51.244;5.724;2023-07-20T14:31:07;0.82;;;0.70;;
68921;SDS011;55959;51.244;5.724;2023-07-20T14:33:33;0.85;;;0.85;;
68921;SDS011;55959;51.244;5.724;2023-07-20T14:35:59;1.15;;;0.73;;
68921;SDS011;55959;51.244;5.724;2023-07-20T14:38:27;0.80;;;0.80;;
68921;SDS011;55959;51.244;5.724;2023-07-20T14:40:53;1.27;;;0.50;;
68921;SDS011;55959;51.244;5.724;2023-07-20T14:43:19;1.77;;;0.70;;
68921;SDS011;55959;51.244;5.724;2023-07-20T14:45:45;0.90;;;0.80;;
68921;SDS011;55959;51.244;5.724;2023-07-20T14:48:11;1.00;;;0.75;;
68921;SDS011;55959;51.244;5.724;2023-07-20T14:50:37;0.73;;;0.63;;
68921;SDS011;55959;51.244;5.724;2023-07-20T14:53:03;0.82;;;0.80;;
68921;SDS011;55959;51.244;5.724;2023-07-20T14:55:29;1.00;;;0.70;;
68921;SDS011;55959;51.244;5.724;2023-07-20T14:57:54;0.60;;;0.60;;
68921;SDS011;55959;51.244;5.724;2023-07-20T15:00:20;1.73;;;0.60;;
68921;SDS011;55959;51.244;5.724;2023-07-20T15:02:46;1.15;;;0.55;;
68921;SDS011;55959;51.244;5.724;2023-07-20T15:05:14;0.80;;;0.60;;
68921;SDS011;55959;51.244;5.724;2023-07-20T15:07:49;0.93;;;0.68;;
68921;SDS011;55959;51.244;5.724;2023-07-20T15:10:15;0.60;;;0.60;;
68921;SDS011;55959;51.244;5.724;2023-07-20T15:12:41;1.00;;;0.68;;
68921;SDS011;55959;51.244;5.724;2023-07-20T15:15:08;0.60;;;0.60;;